Portada
METAR-TAF:

METAR-TAF

Aeropuertos :

Dübendorf, Suiza

latitud: 47-23-55N, longitud: 8-38-53E, altitud: 448 m

Observación

El informe se hizo hace 38 minutos, a las 12:20 UTC
Viento 8 kt del este-noreste, variando entre norte y este
Temperatura 5°C
Humedad 81%
Presión 1022 hPa
Visibilidad 10 km o más
Escasas nubes a una altura de 1300 ft
Nubes dispersas a una altura de 3700 ft
Cielo cubierto a una altura de 4300 ft

METAR: LSMD 051220Z 06008KT 010V090 9999 FEW013 SCT037 OVC043 05/02 Q1022 RMK BLU

Hora: 13:58 (12:58 UTC)


TAF: falta

Observaciones y pronósticos meteorológicos de más de 4000 aeropuertos (mensajes METAR y TAF).

Los puntos amarillos y rojos representan las estaciones disponibles.

Ponga el ratón en el punto deseado para ver el nombre de la estación.

Haga clic para ver las observaciones y los pronósticos meteorológicos.

Para cambiar el mapa : haga clic en los botones verdes con una cruz de color negro para hacer un zoom, en el botón verde con un guión para alejar o en las flechas verdes para mapas adyacentes.


METAR-TAF: